x

Gravelly Shoals Light Mi (gslm4) Weather Station

5:40am - Sun 21st Sep 2014 All times are CDT. -5 hours from GMT.

  • Wind
    8mph, 10mph gusts
  • Air Temp 61°f
  • Sea Pressure 1001.7mb
  • Gravelly Shoals Light Mi
  • Gravelly Shoals Light Mi

More Historic Weather Station data

Upgrade to MSW Pro to gain access to the past 30 days of data for over 8000 Wavebouys and Weather Stations around the globe.

Join Pro

Comparision Forecast

View Surf forecast
   
Sun 09/21 5:40am 8 10 mph 1001.7mb 61f
5:30am 2 6 mph 1001.7mb 61f
5:20am 5 7 mph 1001.7mb 60f
5:11am 5
mph
1001.7mb 60f
5:10am 5 9 mph 1001.7mb 60f
5:00am 1 5 mph 1002mb 59f
4:40am 10 15 mph 1002.4mb 59f
4:30am 14 23 mph 1002.4mb 59f
4:20am 24 38 mph 1002.7mb 61f
4:14am 23 29 mph 1002.7mb 63f
4:10am 21 28 mph 1002.7mb 63f
4:00am 8 11 mph 1002.4mb 62f
3:40am 9 20 mph 1002.7mb 63f
3:30am 15 23 mph 1002.4mb 63f
3:20am 13 18 mph 1002.7mb 63f
3:10am 9 13 mph 1002.7mb 63f
3:00am 7 9 mph 1003mb 64f
2:40am 6 8 mph 1003mb 64f
2:30am 5 8 mph 1003mb 63f
2:20am 3 5 mph 1003.4mb 63f
2:10am 3 8 mph 1003.7mb 63f
2:09am 3 10 mph 1003.7mb 63f
2:00am 7 9 mph 1003.7mb 63f
1:40am 3 7 mph 1004.1mb 63f
1:30am 3 9 mph 1004.4mb 63f
1:20am 6 10 mph 1004.7mb 64f
1:10am 5 9 mph 1005.1mb 64f
1:09am 6 14 mph 1005.1mb 63f
1:00am 6 10 mph 1005.1mb 63f
12:40am 5 14 mph 1005.4mb 63f
12:30am 9 13 mph 1005.4mb 63f
12:20am 7 13 mph 1005.8mb 63f
12:10am 7 11 mph 1005.8mb 63f
12:09am 9 18 mph 1005.8mb 63f
12:00am 8 15 mph 1005.8mb 63f
Sat 09/20 11:40pm 9 10 mph 1006.4mb 64f
11:30pm 10 15 mph 1006.4mb 64f
11:20pm 14 18 mph 1006.4mb 64f
11:10pm 17 18 mph 1006.8mb 64f
11:08pm 17 21 mph 1006.4mb 64f
11:00pm 7 17 mph 1006.8mb 63f
10:40pm 17 18 mph 1006.8mb 63f
10:30pm 15 17 mph 1006.8mb 63f
10:20pm 16 17 mph 1006.8mb 64f
10:10pm 16 22 mph 1007.1mb 64f
10:08pm 17 22 mph 1006.8mb 64f
10:00pm 21 22 mph 1006.8mb 64f
9:40pm 18 20 mph 1007.1mb 64f
9:30pm 16 18 mph 1007.1mb 64f
9:20pm 16 18 mph 1007.1mb 64f
9:10pm 16 18 mph 1007.1mb 64f
9:07pm 16 21 mph 1007.1mb 64f
9:00pm 16 20 mph 1007.1mb 64f
8:40pm 14 20 mph 1006.8mb 64f
8:30pm 16 20 mph 1006.8mb 64f
8:20pm 15 18 mph 1006.8mb 64f
8:10pm 10 17 mph 1006.4mb 64f
8:07pm 15 17 mph 1006.4mb 64f
8:00pm 6 13 mph 1006.4mb 64f
7:40pm 7 11 mph 1006.1mb 64f
7:30pm 7 16 mph 1006.1mb 64f
7:20pm 13 16 mph 1006.4mb 64f
7:10pm 15 17 mph 1006.4mb 64f
7:07pm 16 24 mph 1006.4mb 64f
7:00pm 17 18 mph 1006.4mb 64f
6:30pm 21 23 mph 1006.8mb 64f
6:20pm 21 24 mph 1006.8mb 64f
6:10pm 22 26 mph 1006.8mb 64f
6:06pm 25
mph
1006.8mb 64f
6:00pm 24 30 mph 1006.8mb 64f
5:40pm 30 40 mph 1007.1mb 65f
5:30pm 33 41 mph 1006.8mb 65f
5:20pm 32 37 mph 1006.8mb 67f
5:10pm 37 41 mph 1006.8mb 67f
5:06pm 30 41 mph 1007.1mb 68f
5:00pm 24 28 mph 1007.1mb 69f
4:40pm 17 21 mph 1006.8mb 68f
4:30pm 18 21 mph 1006.8mb 68f
4:20pm 14 17 mph 1006.8mb 69f
4:10pm 7 11 mph 1006.8mb 68f
4:05pm 6 16 mph 1006.8mb 69f
4:00pm 6 9 mph 1006.8mb 69f
3:40pm 11 15 mph 1007.1mb 68f
3:30pm 5 9 mph 1007.1mb 68f
3:20pm 6 9 mph 1007.1mb 68f
3:10pm 7 10 mph 1007.1mb 68f
3:05pm 7 14 mph 1007.1mb 68f
3:00pm 7 10 mph 1007.1mb 68f
2:40pm 6 9 mph 1007.5mb 67f
2:30pm 8 10 mph 1007.5mb 67f
2:20pm 9 14 mph 1007.5mb 66f
2:10pm 9 14 mph 1007.5mb 66f
2:04pm 9 15 mph 1007.5mb 67f
2:00pm 9 15 mph 1007.8mb 67f
1:40pm 6 9 mph 1008.1mb 66f
1:30pm 5 7 mph 1008.5mb 66f
1:20pm 3 8 mph 1008.8mb 65f
1:10pm 3 7 mph 1008.8mb 65f
1:04pm 3 11 mph 1008.8mb 65f
1:00pm 3 7 mph 1008.8mb 65f
12:40pm 5 9 mph 1008.8mb 65f
12:30pm 3 7 mph 1009.1mb 65f
12:20pm 3 11 mph 1009.1mb 65f
12:10pm 5 9 mph 1009.5mb 65f
12:04pm 7 11 mph 1009.8mb 65f
12:00pm 3 7 mph 1009.5mb 65f
11:40am 3 11 mph 1009.8mb 64f
11:30am 6 9 mph 1009.8mb 64f
11:20am 6 10 mph 1010.2mb 64f
11:10am 2 9 mph 1010.5mb 63f
11:00am 7 11 mph 1010.5mb 63f
10:40am 6 9 mph 1010.5mb 63f
10:30am 2 7 mph 1010.5mb 62f
10:20am 2 15 mph 1010.5mb 62f
10:10am 11 14 mph 1010.2mb 62f
10:03am 10 21 mph 1010.2mb 62f
10:00am 10 15 mph 1010.2mb 62f
9:40am 15 21 mph 1009.8mb 62f
9:30am 10 17 mph 1010.2mb 62f
9:20am 10 15 mph 1010.2mb 62f
9:10am 11 17 mph 1010.5mb 62f
9:02am 10 16 mph 1010.5mb 62f
9:00am 13 16 mph 1010.5mb 62f
8:40am 7 11 mph 1010.8mb 62f
8:30am 6 9 mph 1010.8mb 62f
8:20am 7 9 mph 1011.2mb 62f
8:10am 3 7 mph 1011.2mb 61f
8:02am 3 10 mph 1011.2mb 61f
8:00am 3 9 mph 1011.2mb 61f
7:40am 3 10 mph 1011.5mb 61f
7:30am 5 9 mph 1011.9mb 61f
7:20am 3 9 mph 1011.9mb 61f
7:10am 6 10 mph 1011.9mb 61f
7:02am 5 9 mph 1011.9mb 62f
7:00am 3 10 mph 1011.9mb 62f
6:40am 5 16 mph 1011.9mb 62f
6:30am 5 18 mph 1011.9mb 62f
6:20am 10 22 mph 1011.9mb 62f
6:10am 14 26 mph 1011.9mb 61f
6:01am 21
mph
1012.2mb 61f
6:00am 21 29 mph 1012.2mb 61f
5:50am 20 25 mph 1012.2mb 61f
5:40am 16 24 mph 1012.2mb 61f
5:30am 15 26 mph 1012.5mb 61f
5:20am 10 21 mph 1012.5mb 61f
5:10am 5 13 mph 1012.2mb 61f
5:01am 5 18 mph 1012.5mb 61f
5:00am 5 15 mph 1012.5mb 61f
4:50am 3 14 mph 1012.5mb 61f
4:40am 5 10 mph 1012.5mb 60f
4:30am 3 14 mph 1012.5mb 60f
4:20am 5 11 mph 1012.5mb 60f
4:10am 8 18 mph 1011.9mb 60f
4:00am 9 17 mph 1011.9mb 60f
3:50am 9 15 mph 1011.9mb 60f
3:40am 5 11 mph 1012.5mb 60f
3:30am 5 13 mph 1012.5mb 60f
3:20am 6 14 mph 1012.5mb 60f
3:10am 5 13 mph 1012.9mb 59f
3:00am 6 13 mph 1012.5mb 59f
2:50am 5 11 mph 1012.5mb 60f
2:40am 7 16 mph 1012.5mb 60f
2:30am 7 16 mph 1012.9mb 60f
2:20am 9 18 mph 1013.2mb 59f
2:10am 11 17 mph 1013.2mb 59f
2:00am 10 18 mph 1013.2mb 59f
1:50am 9 15 mph 1013.2mb 59f
1:40am 9 14 mph 1013.5mb 59f
1:30am 9 14 mph 1013.5mb 59f
1:20am 8 16 mph 1013.5mb 59f
1:10am 8 15 mph 1014.2mb 59f
1:00am 7 15 mph 1014.2mb 59f
12:50am 7 17 mph 1014.6mb 59f
12:48am 7 25 mph 1014.6mb 59f
12:40am 8 16 mph 1014.2mb 59f
12:30am 14 22 mph 1014.2mb 59f
12:20am 13 25 mph 1014.2mb 59f
12:10am 17 25 mph 1014.2mb 59f
12:00am 16 29 mph 1014.6mb 59f
Fri 09/19 11:50pm 21 32 mph 1014.2mb 59f
11:47pm 23
mph
1014.2mb 59f
11:40pm 21 32 mph 1014.6mb 59f
11:30pm 18 32 mph 1014.9mb 59f
11:20pm 23 36 mph 1014.9mb 59f
11:10pm 20 32 mph 1015.2mb 59f
11:00pm 25 34 mph 1015.2mb 59f
10:50pm 26 33 mph 1015.2mb 59f
10:40pm 30 36 mph 1015.2mb 59f
10:30pm 29 34 mph 1015.6mb 59f
10:20pm 23 32 mph 1015.9mb 59f
10:10pm 25 34 mph 1015.9mb 59f
10:00pm 28 36 mph 1015.9mb 59f
9:56pm 28 31 mph 1015.9mb 59f
9:50pm 29 36 mph 1015.9mb 59f
9:40pm 30 36 mph 1016.3mb 59f
9:30pm 29 33 mph 1016.3mb 59f
9:20pm 28 34 mph 1016.6mb 59f
9:10pm 29 33 mph 1016.6mb 59f
9:00pm 30 33 mph 1016.6mb 59f
8:56pm 29
mph
1016.3mb 59f
8:50pm 32 36 mph 1016.6mb 59f
8:40pm 31 33 mph 1016.6mb 59f
8:30pm 29 33 mph 1016.9mb 59f
8:20pm 30 34 mph 1016.9mb 60f
8:10pm 31 36 mph 1016.9mb 60f
8:00pm 29 33 mph 1016.9mb 60f
7:55pm 29 30 mph 1016.9mb 60f
7:50pm 28 30 mph 1016.9mb 60f
7:40pm 26 30 mph 1016.9mb 60f
7:30pm 28 31 mph 1016.9mb 61f
7:20pm 28 32 mph 1017.3mb 61f
7:10pm 29 32 mph 1017.3mb 61f
7:00pm 31 33 mph 1016.9mb 62f
6:54pm 26 29 mph 1017.3mb 62f
6:50pm 24 26 mph 1017.3mb 62f
6:30pm 16 20 mph 1017.3mb 63f
6:20pm 16 20 mph 1017.3mb 63f
6:10pm 17 21 mph 1017.3mb 63f
6:00pm 17 18 mph 1017.6mb 63f
5:50pm 16 17 mph 1017.6mb 62f
5:44pm 11 14 mph 1017.9mb 62f
5:40pm 14
mph
1017.9mb 62f
5:30pm 11 14 mph 1017.9mb 62f
5:20pm 10 11 mph 1018.3mb 61f
5:10pm 9 11 mph 1018.6mb 61f
5:00pm 10 11 mph 1018.6mb 61f
4:50pm 10 11 mph 1019mb 62f
4:44pm 9 10 mph 1019mb 62f
4:40pm 9 10 mph 1019mb 62f
4:30pm 9 10 mph 1019mb 61f
4:20pm 7 9 mph 1019.3mb 63f
4:10pm 5 8 mph 1019.6mb 62f
4:00pm 3 5 mph 1020mb 62f
3:50pm  -  5 mph 1020.3mb 60f
3:44pm 1 10 mph 1020.3mb 60f
3:40pm 3 9 mph 1020.7mb 60f
3:30pm 8 9 mph 1020.7mb 60f
3:20pm 8 9 mph 1021mb 59f
3:10pm 7 8 mph 1021mb 59f
3:00pm 8 10 mph 1021mb 59f
2:50pm 8 10 mph 1021.3mb 58f
2:43pm 9 10 mph 1021.3mb 58f
2:40pm 8 10 mph 1021.3mb 58f
2:30pm 8 10 mph 1021.7mb 58f
2:20pm 8 9 mph 1021.7mb 58f
2:10pm 1 5 mph 1021.3mb 57f
2:00pm  -  9 mph 1021.3mb 57f
1:50pm 7 10 mph 1021.7mb 56f
1:43pm 7 14 mph 1022mb 56f
1:40pm 8 13 mph 1022mb 56f
1:30pm 13 14 mph 1022.7mb 56f
1:20pm 11 13 mph 1022.7mb 56f
1:10pm 8 10 mph 1023mb 56f
1:00pm 8 9 mph 1022.7mb 56f
12:50pm 6 9 mph 1023mb 56f
12:42pm 3 11 mph 1023mb 56f
12:40pm 2 9 mph 1023mb 56f
12:30pm 5 9 mph 1023.4mb 56f
12:20pm 1 9 mph 1023.4mb 56f
12:10pm 2 6 mph 1023.7mb 56f
12:00pm 2 11 mph 1023.7mb 56f
11:50am 8 11 mph 1023.7mb 56f
11:42am 5 15 mph 1023.7mb 56f
11:40am 5 11 mph 1023.7mb 56f
11:30am 7 13 mph 1023.7mb 55f
11:20am 9 15 mph 1024mb 55f
11:10am 11 15 mph 1024mb 54f
11:00am 10 14 mph 1024.4mb 54f
10:50am 8 14 mph 1024.7mb 55f
10:40am 11 14 mph 1024.7mb 54f
10:30am 9 13 mph 1025.1mb 54f
10:20am 10 14 mph 1025.1mb 53f
10:10am 9 13 mph 1025.1mb 53f
10:00am 11 13 mph 1025.1mb 53f
9:50am 11 14 mph 1025.1mb 52f
9:41am 11 15 mph 1025.1mb 52f
9:40am 11 15 mph 1025.1mb 52f
9:30am 13 15 mph 1025.1mb 52f
9:20am 14
mph
1025.1mb 52f
9:10am 13 14 mph 1025.4mb 52f
9:00am 10 11 mph 1025.4mb 52f
8:50am 9 10 mph 1025.4mb 52f
8:41am 8 11 mph 1025.4mb 52f
8:40am 8 10 mph 1025.4mb 52f
8:30am 8 11 mph 1025.7mb 52f
8:20am 9 11 mph 1025.7mb 52f
8:10am 9 11 mph 1025.7mb 52f
8:00am 8 9 mph 1025.7mb 52f
7:50am 8 9 mph 1025.4mb 52f
7:40am 8 10 mph 1025.4mb 52f
7:30am 7 9 mph 1025.4mb 51f
7:20am 9 10 mph 1025.4mb 51f
7:10am 8 11 mph 1025.4mb 51f
7:00am 10 11 mph 1025.4mb 51f
6:50am 10 11 mph 1025.4mb 51f
6:40am 9 11 mph 1025.4mb 51f
6:30am 10 13 mph 1025.1mb 50f
6:20am 11 14 mph 1025.1mb 50f
6:10am 13 14 mph 1025.1mb 50f
6:00am 11 13 mph 1025.1mb 51f
5:50am 10 13 mph 1025.1mb 51f
5:40am 10 13 mph 1025.1mb 51f
5:30am 9 11 mph 1025.1mb 51f
5:20am 8 11 mph 1024.7mb 51f
5:10am 7 9 mph 1024.7mb 51f
5:00am 8 11 mph 1024.7mb 51f
4:50am 8 13 mph 1024.7mb 51f
4:40am 10 13 mph 1024.7mb 51f
4:30am 11 13 mph 1024.7mb 51f
4:23am 10 14 mph 1025.1mb 51f
4:20am 10 14 mph 1025.1mb 51f
4:10am 10 14 mph 1025.1mb 51f
4:00am 10 14 mph 1024.7mb 51f
3:50am 10 14 mph 1024.7mb 51f
3:40am 10 13 mph 1024.7mb 51f
3:30am 10 13 mph 1024.7mb 51f
3:22am 10 13 mph 1024.7mb 51f
3:20am 10 13 mph 1024.7mb 51f
3:10am 9 11 mph 1024.7mb 51f
3:00am 9 10 mph 1024.7mb 51f
2:50am 9 10 mph 1024.7mb 51f
2:40am 9 11 mph 1024.7mb 51f
2:30am 8 10 mph 1024.7mb 51f
2:22am 8 13 mph 1025.1mb 51f
2:20am 7 10 mph 1025.1mb 51f
2:10am 7 10 mph 1025.1mb 51f
2:00am 7 10 mph 1025.4mb 51f
1:50am 8 11 mph 1025.4mb 51f
1:40am 8 11 mph 1025.4mb 51f
1:30am 7 13 mph 1025.4mb 51f
1:21am 9 15 mph 1025.4mb 51f
1:20am 9 11 mph 1025.4mb 51f
1:10am 9 14 mph 1025.4mb 51f
1:00am 10 14 mph 1025.1mb 51f
12:50am 11 14 mph 1025.1mb 51f
12:40am 11 15 mph 1025.1mb 51f
12:30am 13 15 mph 1025.1mb 51f
12:21am 14 20 mph 1024.7mb 51f
12:20am 14 16 mph 1024.7mb 51f
12:10am 13 17 mph 1024.7mb 51f
12:00am 14 16 mph 1024.7mb 51f
Thu 09/18 11:50pm 14 17 mph 1024.7mb 51f
11:40pm 13 16 mph 1024.7mb 51f
11:30pm 16 20 mph 1024.4mb 51f
11:21pm 15 17 mph 1024.7mb 51f
11:20pm 15 17 mph 1024.7mb 51f
11:10pm 15 16 mph 1024.7mb 51f
11:00pm 13 16 mph 1025.1mb 50f
10:50pm 13 15 mph 1025.1mb 51f
10:40pm 13 15 mph 1025.1mb 51f
10:30pm 10 15 mph 1025.1mb 51f
10:20pm 13 17 mph 1024.7mb 50f
10:10pm 14 16 mph 1024.7mb 50f
10:00pm 13 16 mph 1024.7mb 50f
9:50pm 14 15 mph 1024.4mb 50f
9:40pm 14 16 mph 1024.4mb 50f
9:30pm 15 17 mph 1024.4mb 50f
9:20pm 14 17 mph 1024.4mb 50f
9:10pm 14 17 mph 1024.4mb 50f
9:00pm 11 16 mph 1024.4mb 51f
8:50pm 14 17 mph 1024.4mb 50f
8:40pm 15 17 mph 1024mb 50f
8:30pm 14 16 mph 1024mb 50f
8:20pm 14 17 mph 1024mb 50f
8:19pm 14 18 mph 1024mb 50f
8:10pm 14 17 mph 1024mb 50f
8:00pm 15 18 mph 1023.7mb 50f
7:50pm 14 17 mph 1023.7mb 50f
7:40pm 15 18 mph 1023.7mb 51f
7:30pm 14 18 mph 1023.4mb 51f
7:20pm 13 17 mph 1023.4mb 51f
7:19pm 14 17 mph 1023.4mb 51f
7:10pm 14 16 mph 1023mb 51f
7:00pm 14 17 mph 1023mb 51f
6:50pm 15 17 mph 1023mb 51f
6:30pm 13 15 mph 1023mb 51f
6:20pm 14 15 mph 1023mb 51f
6:19pm 13 16 mph 1023mb 52f
6:10pm 13 16 mph 1023mb 52f
6:00pm 10 15 mph 1023mb 52f
5:50pm 13 14 mph 1023mb 52f
5:40pm 11 15 mph 1023mb 52f
5:30pm 13 15 mph 1023mb 52f
5:20pm 14 16 mph 1023mb 52f
5:18pm 14 17 mph 1023mb 52f
5:10pm 15 17 mph 1023mb 52f
5:00pm 11 15 mph 1023mb 52f
4:50pm 13 15 mph 1023mb 52f
4:40pm 11 15 mph 1023.4mb 52f
4:30pm 11 15 mph 1023.4mb 52f
4:20pm 11 14 mph 1023.4mb 52f
4:18pm 11 16 mph 1023.4mb 52f
4:10pm 10 14 mph 1023.4mb 52f
4:00pm 13 15 mph 1023.4mb 52f
3:50pm 13 16 mph 1023.4mb 51f
3:40pm 13 15 mph 1023.4mb 52f
3:30pm 13 15 mph 1023.4mb 52f
3:20pm 10 14 mph 1023.4mb 52f
3:17pm 11 15 mph 1023.4mb 52f
3:10pm 9 11 mph 1023.4mb 52f
3:00pm 8 13 mph 1023.4mb 52f
2:50pm 11 13 mph 1023.4mb 51f
2:40pm 10 13 mph 1023.7mb 51f
2:30pm 11 14 mph 1023.7mb 51f
2:20pm 13 15 mph 1023.7mb 51f
2:17pm 13 16 mph 1023.7mb 51f
2:10pm 13 14 mph 1023.7mb 51f
2:00pm 13 14 mph 1024mb 51f
1:50pm 11 15 mph 1024mb 51f
1:40pm 11 16 mph 1024mb 51f
1:30pm 13 15 mph 1024mb 51f
1:20pm 13 14 mph 1024mb 51f
1:17pm 11 17 mph 1024mb 51f
1:10pm 11 15 mph 1024mb 51f
1:00pm 11 15 mph 1024mb 51f
12:50pm 13 15 mph 1024mb 51f
12:40pm 13 17 mph 1024mb 50f
12:30pm 14 16 mph 1024mb 50f
12:20pm 14 17 mph 1024mb 50f
12:16pm 14 20 mph 1024mb 50f
12:10pm 14 17 mph 1024mb 50f
12:00pm 15 17 mph 1024mb 50f
11:50am 15 17 mph 1024mb 50f
11:40am 14 18 mph 1023.7mb 50f
11:30am 16 20 mph 1023.4mb 50f
11:20am 16 20 mph 1023.4mb 50f
11:16am 15 21 mph 1023.4mb 50f
11:10am 17 20 mph 1023.4mb 50f
11:00am 17 21 mph 1023.4mb 50f
10:50am 17 20 mph 1023mb 50f
10:40am 18 21 mph 1023mb 50f
10:30am 16 21 mph 1023mb 50f
10:20am 16 21 mph 1022.7mb 50f
10:15am 16 22 mph 1022.7mb 50f
10:10am 16 21 mph 1022.7mb 50f
10:00am 16 20 mph 1022.7mb 50f
9:50am 17 22 mph 1022.7mb 49f
9:40am 17 20 mph 1022.4mb 49f
9:30am 17 21 mph 1022.7mb 49f
9:20am 17 21 mph 1022.4mb 49f
9:15am 18 25 mph 1022.4mb 49f
9:10am 20 22 mph 1022.4mb 49f
9:00am 20 23 mph 1022.4mb 49f
8:50am 18 23 mph 1022.4mb 50f
8:40am 21 25 mph 1022mb 50f
8:30am 20 23 mph 1022mb 50f
8:20am 20 22 mph 1022mb 50f
8:15am 20 22 mph 1022mb 50f
8:10am 18 21 mph 1021.7mb 51f
8:00am 20 22 mph 1021.7mb 50f
7:50am 18 21 mph 1021.3mb 51f
7:40am 16 20 mph 1021.3mb 50f
7:30am 18 21 mph 1021.3mb 51f
7:20am 17 18 mph 1021mb 51f
7:14am 16 21 mph 1021mb 51f
7:10am 16 18 mph 1021mb 51f
7:00am 16 18 mph 1021mb 51f
6:50am 15 18 mph 1021mb 51f
6:40am 17 20 mph 1020.7mb 51f
6:30am 18 20 mph 1020.7mb 51f
6:20am 17 21 mph 1020.7mb 52f
6:14am 18 22 mph 1020.3mb 52f
6:10am 18 20 mph 1020.3mb 52f
6:00am 18 22 mph 1020.3mb 52f
5:50am 18 22 mph 1020mb 52f
5:40am 18 22 mph 1020mb 52f
5:30am 18 21 mph 1019.6mb 53f
5:20am 17 20 mph 1019.6mb 53f
5:13am 18 22 mph 1019.6mb 53f
5:10am 18 21 mph 1019.6mb 53f
5:00am 20 22 mph 1019.3mb 53f
4:50am 20 21 mph 1019.3mb 53f
4:40am 16 18 mph 1019.3mb 53f
4:30am 17 21 mph 1019.3mb 53f
4:20am 17 21 mph 1019.3mb 53f
4:13am 17 21 mph 1019mb 53f
4:10am 17 20 mph 1019mb 53f
4:00am 17 20 mph 1019mb 53f
3:50am 16 18 mph 1019mb 53f
3:40am 16 21 mph 1018.6mb 53f
3:30am 18 20 mph 1018.6mb 53f
3:20am 18 21 mph 1018.6mb 54f
3:13am 17 20 mph 1018.6mb 54f
3:10am 17 20 mph 1018.3mb 54f
3:00am 15 16 mph 1018.3mb 54f
2:40am 15 16 mph 1018.3mb 54f
2:30am 14 18 mph 1018.3mb 54f
2:20am 16 17 mph 1018.3mb 54f
2:12am 14 18 mph 1018.3mb 54f
2:10am 14 17 mph 1018.3mb 54f
2:00am 16 18 mph 1018.3mb 54f
1:50am 16 18 mph 1017.9mb 54f
1:40am 17 18 mph 1017.9mb 55f
1:30am 17 18 mph 1017.9mb 55f
1:20am 15 17 mph 1017.9mb 55f
1:12am 16 21 mph 1017.9mb 55f
1:10am 16 20 mph 1017.9mb 55f
1:00am 17 20 mph 1017.9mb 55f
12:50am 17 21 mph 1017.6mb 54f
12:40am 16 20 mph 1017.6mb 54f
12:30am 16 18 mph 1017.6mb 55f
12:20am 16 20 mph 1017.6mb 55f
12:11am 18 22 mph 1017.6mb 55f
12:10am 18 20 mph 1017.3mb 55f
12:00am 18 22 mph 1017.3mb 55f
Wed 09/17 11:50pm 18 22 mph 1017.3mb 55f
11:40pm 20 22 mph 1017.3mb 56f
11:30pm 20 22 mph 1017.3mb 56f
11:20pm 18 21 mph 1016.9mb 56f
11:11pm 17 21 mph 1016.9mb 56f
11:10pm 17 20 mph 1016.9mb 56f
11:00pm 18 21 mph 1016.6mb 57f
10:50pm 18 20 mph 1016.9mb 58f
10:40pm 13 15 mph 1016.6mb 58f
10:30pm 13 15 mph 1016.6mb 59f
10:20pm 13 14 mph 1016.6mb 59f
10:11pm 13 14 mph 1016.3mb 59f
10:10pm 13 14 mph 1016.3mb 59f
10:00pm 10 14 mph 1016.3mb 59f
9:50pm 13 14 mph 1016.3mb 60f
9:40pm 11 14 mph 1015.9mb 60f
9:30pm 11
mph
1015.9mb 60f
9:20pm 10 13 mph 1015.9mb 61f
9:10pm 10 11 mph 1015.9mb 61f
9:00pm 9 10 mph 1015.9mb 61f
8:50pm 8 10 mph 1015.9mb 61f
8:40pm 9
mph
1015.9mb 61f
8:30pm 9 10 mph 1015.6mb 62f
8:20pm 9
mph
1015.6mb 62f
8:10pm 9 10 mph 1015.6mb 62f
8:00pm 8 10 mph 1015.6mb 62f
7:50pm 9 10 mph 1015.2mb 62f
7:40pm 9
mph
1015.2mb 62f
7:30pm 8 9 mph 1015.2mb 63f
7:20pm 8 9 mph 1015.2mb 63f
7:10pm 8 10 mph 1015.2mb 63f
7:09pm 9 10 mph 1015.2mb 63f
7:00pm 9 10 mph 1015.2mb 63f
6:50pm 9 10 mph 1015.2mb 63f
6:30pm 9 10 mph 1014.9mb 64f
6:20pm 10
mph
1014.9mb 64f
6:10pm 9 11 mph 1014.9mb 64f
6:09pm 10 14 mph 1014.9mb 64f
6:00pm 11
mph
1014.9mb 64f
5:50pm 10 11 mph 1015.2mb 64f
5:40pm 10 14 mph 1014.9mb 64f
5:30pm 13 14 mph 1014.9mb 64f
5:20pm 13 14 mph 1014.9mb 64f
5:10pm 11 13 mph 1014.9mb 64f
5:08pm 10 15 mph 1014.9mb 64f
5:00pm 11 14 mph 1014.9mb 64f
4:50pm 14 15 mph 1014.9mb 64f
4:40pm 13 14 mph 1014.9mb 64f
4:30pm 5 8 mph 1014.9mb 64f
4:20pm 1 6 mph 1014.9mb 64f
4:10pm 2 7 mph 1014.9mb 64f
4:08pm 3 7 mph 1014.9mb 64f
4:00pm 2 5 mph 1014.9mb 64f
3:50pm 2 6 mph 1014.9mb 64f
3:40pm 2 5 mph 1014.9mb 63f
3:30pm 1 6 mph 1014.9mb 63f
3:20pm 6 7 mph 1014.9mb 63f
3:10pm 3 7 mph 1014.9mb 63f
3:08pm 3 7 mph 1014.9mb 63f
3:00pm 5 7 mph 1014.9mb 63f
2:50pm 2 5 mph 1014.9mb 63f
2:40pm 2 5 mph 1014.9mb 62f
2:30pm 2 5 mph 1014.9mb 62f
2:20pm 2 7 mph 1014.9mb 62f
2:10pm 2 7 mph 1014.9mb 63f
2:07pm 3 7 mph 1015.2mb 63f
2:00pm 3 6 mph 1015.2mb 62f
1:50pm 2 7 mph 1015.2mb 62f
1:40pm 3 7 mph 1015.2mb 62f
1:30pm 1 6 mph 1015.2mb 62f
1:20pm 2 6 mph 1015.2mb 61f
1:10pm 2 5 mph 1015.6mb 61f
1:07pm 2 10 mph 1015.6mb 61f
1:00pm 1 6 mph 1015.6mb 61f
12:50pm 2 5 mph 1015.6mb 61f
12:40pm 2 8 mph 1015.6mb 60f
12:30pm 3 8 mph 1015.6mb 60f
12:20pm 5 9 mph 1015.6mb 60f
12:10pm 7 13 mph 1015.6mb 60f
12:06pm 7 16 mph 1015.6mb 60f
12:00pm 10 14 mph 1015.6mb 59f
11:50am 11 15 mph 1015.9mb 59f
11:40am 13 16 mph 1015.9mb 58f
11:30am 11 15 mph 1015.9mb 58f
11:20am 11 15 mph 1015.9mb 58f